sensor_id;sensor_type;location;lat;lon;timestamp;temperature;humidity
30825;DHT22;17550;45.486;12.222;2023-02-28T00:00:26;4.30;94.80
30825;DHT22;17550;45.486;12.222;2023-02-28T00:02:52;4.30;94.80
30825;DHT22;17550;45.486;12.222;2023-02-28T00:05:20;4.20;94.90
30825;DHT22;17550;45.486;12.222;2023-02-28T00:07:47;4.20;94.80
30825;DHT22;17550;45.486;12.222;2023-02-28T00:10:17;4.30;94.80
30825;DHT22;17550;45.486;12.222;2023-02-28T00:12:52;4.30;94.90
30825;DHT22;17550;45.486;12.222;2023-02-28T00:15:18;4.30;94.80
30825;DHT22;17550;45.486;12.222;2023-02-28T00:17:43;4.30;94.90
30825;DHT22;17550;45.486;12.222;2023-02-28T00:20:11;4.20;94.90
30825;DHT22;17550;45.486;12.222;2023-02-28T00:22:43;4.20;94.90
30825;DHT22;17550;45.486;12.222;2023-02-28T00:25:10;4.20;95.00
30825;DHT22;17550;45.486;12.222;2023-02-28T00:27:37;4.20;95.10
30825;DHT22;17550;45.486;12.222;2023-02-28T00:30:04;4.20;95.20
30825;DHT22;17550;45.486;12.222;2023-02-28T00:32:30;4.20;95.20
30825;DHT22;17550;45.486;12.222;2023-02-28T00:34:56;4.10;95.30
30825;DHT22;17550;45.486;12.222;2023-02-28T00:37:22;4.10;95.50
30825;DHT22;17550;45.486;12.222;2023-02-28T00:39:47;4.00;95.50
30825;DHT22;17550;45.486;12.222;2023-02-28T00:42:13;4.00;95.60
30825;DHT22;17550;45.486;12.222;2023-02-28T00:44:39;4.00;95.50
30825;DHT22;17550;45.486;12.222;2023-02-28T00:47:04;4.00;95.50
30825;DHT22;17550;45.486;12.222;2023-02-28T00:49:30;4.00;95.70
30825;DHT22;17550;45.486;12.222;2023-02-28T00:51:56;4.00;95.60
30825;DHT22;17550;45.486;12.222;2023-02-28T00:54:23;4.00;95.60
30825;DHT22;17550;45.486;12.222;2023-02-28T00:56:49;3.90;95.60
30825;DHT22;17550;45.486;12.222;2023-02-28T00:59:16;3.90;95.60
30825;DHT22;17550;45.486;12.222;2023-02-28T01:01:43;3.90;95.60
30825;DHT22;17550;45.486;12.222;2023-02-28T01:04:09;3.90;95.70
30825;DHT22;17550;45.486;12.222;2023-02-28T01:06:35;3.90;95.60
30825;DHT22;17550;45.486;12.222;2023-02-28T01:09:04;3.80;95.50
30825;DHT22;17550;45.486;12.222;2023-02-28T01:11:31;3.80;95.60
30825;DHT22;17550;45.486;12.222;2023-02-28T01:13:56;3.80;95.70
30825;DHT22;17550;45.486;12.222;2023-02-28T01:16:22;3.80;95.70
30825;DHT22;17550;45.486;12.222;2023-02-28T01:18:48;3.90;95.90
30825;DHT22;17550;45.486;12.222;2023-02-28T01:21:16;3.90;95.70
30825;DHT22;17550;45.486;12.222;2023-02-28T01:23:42;3.90;95.60
30825;DHT22;17550;45.486;12.222;2023-02-28T01:28:41;3.90;95.50
30825;DHT22;17550;45.486;12.222;2023-02-28T01:31:08;3.90;95.50
30825;DHT22;17550;45.486;12.222;2023-02-28T01:33:34;3.90;95.50
30825;DHT22;17550;45.486;12.222;2023-02-28T01:38:29;3.80;95.50
30825;DHT22;17550;45.486;12.222;2023-02-28T01:40:55;3.80;95.60
30825;DHT22;17550;45.486;12.222;2023-02-28T01:43:30;3.80;95.60
30825;DHT22;17550;45.486;12.222;2023-02-28T01:45:57;3.80;95.60
30825;DHT22;17550;45.486;12.222;2023-02-28T01:48:32;3.80;95.60
30825;DHT22;17550;45.486;12.222;2023-02-28T01:51:04;3.80;95.70
30825;DHT22;17550;45.486;12.222;2023-02-28T01:53:36;3.80;95.80
30825;DHT22;17550;45.486;12.222;2023-02-28T01:56:05;3.80;95.80
30825;DHT22;17550;45.486;12.222;2023-02-28T01:58:32;3.80;95.80
30825;DHT22;17550;45.486;12.222;2023-02-28T02:00:58;3.80;95.80
30825;DHT22;17550;45.486;12.222;2023-02-28T02:03:24;3.80;95.90
30825;DHT22;17550;45.486;12.222;2023-02-28T02:05:50;3.80;95.80
30825;DHT22;17550;45.486;12.222;2023-02-28T02:08:26;3.80;95.70
30825;DHT22;17550;45.486;12.222;2023-02-28T02:11:00;3.80;95.80
30825;DHT22;17550;45.486;12.222;2023-02-28T02:24:23;3.80;96.00
30825;DHT22;17550;45.486;12.222;2023-02-28T02:27:17;3.80;96.10
30825;DHT22;17550;45.486;12.222;2023-02-28T02:30:12;3.80;96.10
30825;DHT22;17550;45.486;12.222;2023-02-28T02:44:26;3.70;96.60
30825;DHT22;17550;45.486;12.222;2023-02-28T02:47:07;3.70;96.80
30825;DHT22;17550;45.486;12.222;2023-02-28T02:49:36;3.70;96.90
30825;DHT22;17550;45.486;12.222;2023-02-28T02:52:06;3.60;96.90
30825;DHT22;17550;45.486;12.222;2023-02-28T02:54:35;3.60;97.10
30825;DHT22;17550;45.486;12.222;2023-02-28T02:57:06;3.60;97.10
30825;DHT22;17550;45.486;12.222;2023-02-28T02:59:36;3.50;97.20
30825;DHT22;17550;45.486;12.222;2023-02-28T03:02:06;3.60;97.30
30825;DHT22;17550;45.486;12.222;2023-02-28T03:04:40;3.60;97.20
30825;DHT22;17550;45.486;12.222;2023-02-28T03:07:07;3.60;97.30
30825;DHT22;17550;45.486;12.222;2023-02-28T03:09:34;3.60;97.30
30825;DHT22;17550;45.486;12.222;2023-02-28T03:12:01;3.60;97.30
30825;DHT22;17550;45.486;12.222;2023-02-28T03:17:10;3.60;97.40
30825;DHT22;17550;45.486;12.222;2023-02-28T03:27:57;3.50;97.60
30825;DHT22;17550;45.486;12.222;2023-02-28T03:33:38;3.50;97.60
30825;DHT22;17550;45.486;12.222;2023-02-28T03:38:55;3.50;97.90
30825;DHT22;17550;45.486;12.222;2023-02-28T03:41:25;3.50;98.00
30825;DHT22;17550;45.486;12.222;2023-02-28T03:44:00;3.40;98.00
30825;DHT22;17550;45.486;12.222;2023-02-28T03:46:32;3.40;98.00
30825;DHT22;17550;45.486;12.222;2023-02-28T03:49:15;3.50;97.90
30825;DHT22;17550;45.486;12.222;2023-02-28T03:51:43;3.40;97.90
30825;DHT22;17550;45.486;12.222;2023-02-28T03:54:15;3.50;98.10
30825;DHT22;17550;45.486;12.222;2023-02-28T03:56:50;3.50;97.80
30825;DHT22;17550;45.486;12.222;2023-02-28T03:59:28;3.40;97.90
30825;DHT22;17550;45.486;12.222;2023-02-28T04:01:57;3.50;98.00
30825;DHT22;17550;45.486;12.222;2023-02-28T04:04:24;3.40;98.00
30825;DHT22;17550;45.486;12.222;2023-02-28T04:06:53;3.40;98.00
30825;DHT22;17550;45.486;12.222;2023-02-28T04:09:26;3.50;98.10
30825;DHT22;17550;45.486;12.222;2023-02-28T04:11:53;3.50;98.00
30825;DHT22;17550;45.486;12.222;2023-02-28T04:14:21;3.50;98.10
30825;DHT22;17550;45.486;12.222;2023-02-28T04:16:47;3.50;98.10
30825;DHT22;17550;45.486;12.222;2023-02-28T04:19:13;3.50;98.20
30825;DHT22;17550;45.486;12.222;2023-02-28T04:21:43;3.50;98.10
30825;DHT22;17550;45.486;12.222;2023-02-28T04:24:12;3.50;98.10
30825;DHT22;17550;45.486;12.222;2023-02-28T04:26:41;3.40;98.10
30825;DHT22;17550;45.486;12.222;2023-02-28T04:29:09;3.40;98.20
30825;DHT22;17550;45.486;12.222;2023-02-28T04:31:35;3.40;98.20
30825;DHT22;17550;45.486;12.222;2023-02-28T04:34:01;3.40;98.30
30825;DHT22;17550;45.486;12.222;2023-02-28T04:36:27;3.40;98.30
30825;DHT22;17550;45.486;12.222;2023-02-28T04:38:53;3.40;98.30
30825;DHT22;17550;45.486;12.222;2023-02-28T04:41:22;3.30;98.40
30825;DHT22;17550;45.486;12.222;2023-02-28T04:43:48;3.30;98.50
30825;DHT22;17550;45.486;12.222;2023-02-28T04:46:14;3.30;98.80
30825;DHT22;17550;45.486;12.222;2023-02-28T04:48:40;3.30;98.70
30825;DHT22;17550;45.486;12.222;2023-02-28T04:51:12;3.30;98.50
30825;DHT22;17550;45.486;12.222;2023-02-28T04:53:39;3.20;98.60
30825;DHT22;17550;45.486;12.222;2023-02-28T04:56:06;3.30;98.70
30825;DHT22;17550;45.486;12.222;2023-02-28T04:58:32;3.20;98.60
30825;DHT22;17550;45.486;12.222;2023-02-28T05:01:23;3.20;98.60
30825;DHT22;17550;45.486;12.222;2023-02-28T05:03:49;3.20;98.60
30825;DHT22;17550;45.486;12.222;2023-02-28T05:06:15;3.20;98.50
30825;DHT22;17550;45.486;12.222;2023-02-28T05:08:41;3.20;98.60
30825;DHT22;17550;45.486;12.222;2023-02-28T05:11:19;3.20;98.60
30825;DHT22;17550;45.486;12.222;2023-02-28T05:13:45;3.10;98.80
30825;DHT22;17550;45.486;12.222;2023-02-28T05:16:11;3.10;98.80
30825;DHT22;17550;45.486;12.222;2023-02-28T05:18:37;3.20;98.80
30825;DHT22;17550;45.486;12.222;2023-02-28T05:21:03;3.10;98.70
30825;DHT22;17550;45.486;12.222;2023-02-28T05:23:28;3.10;98.90
30825;DHT22;17550;45.486;12.222;2023-02-28T05:25:55;3.20;98.70
30825;DHT22;17550;45.486;12.222;2023-02-28T05:28:20;3.20;98.80
30825;DHT22;17550;45.486;12.222;2023-02-28T05:30:47;3.20;98.80
30825;DHT22;17550;45.486;12.222;2023-02-28T05:33:12;3.10;98.80
30825;DHT22;17550;45.486;12.222;2023-02-28T05:35:42;3.10;98.80
30825;DHT22;17550;45.486;12.222;2023-02-28T05:38:09;3.10;99.10
30825;DHT22;17550;45.486;12.222;2023-02-28T05:40:34;3.10;98.90
30825;DHT22;17550;45.486;12.222;2023-02-28T05:43:00;3.10;99.00
30825;DHT22;17550;45.486;12.222;2023-02-28T05:45:26;3.10;99.10
30825;DHT22;17550;45.486;12.222;2023-02-28T05:47:55;3.10;98.90
30825;DHT22;17550;45.486;12.222;2023-02-28T05:50:21;3.10;99.10
30825;DHT22;17550;45.486;12.222;2023-02-28T05:52:53;3.10;99.10
30825;DHT22;17550;45.486;12.222;2023-02-28T05:55:18;3.00;99.20
30825;DHT22;17550;45.486;12.222;2023-02-28T05:57:44;3.00;99.30
30825;DHT22;17550;45.486;12.222;2023-02-28T06:00:11;3.10;99.10
30825;DHT22;17550;45.486;12.222;2023-02-28T06:02:41;3.00;99.20
30825;DHT22;17550;45.486;12.222;2023-02-28T06:05:14;3.00;99.30
30825;DHT22;17550;45.486;12.222;2023-02-28T06:07:40;3.00;99.30
30825;DHT22;17550;45.486;12.222;2023-02-28T06:10:06;3.10;99.10
30825;DHT22;17550;45.486;12.222;2023-02-28T06:12:32;3.10;99.70
30825;DHT22;17550;45.486;12.222;2023-02-28T06:14:57;3.10;99.30
30825;DHT22;17550;45.486;12.222;2023-02-28T06:17:23;3.20;99.60
30825;DHT22;17550;45.486;12.222;2023-02-28T06:19:48;3.40;99.50
30825;DHT22;17550;45.486;12.222;2023-02-28T06:22:14;3.50;99.20
30825;DHT22;17550;45.486;12.222;2023-02-28T06:24:40;3.60;99.20
30825;DHT22;17550;45.486;12.222;2023-02-28T06:27:05;3.70;98.70
30825;DHT22;17550;45.486;12.222;2023-02-28T06:29:32;3.80;98.70
30825;DHT22;17550;45.486;12.222;2023-02-28T06:31:58;3.90;98.40
30825;DHT22;17550;45.486;12.222;2023-02-28T06:34:24;4.00;98.00
30825;DHT22;17550;45.486;12.222;2023-02-28T06:36:51;4.00;97.70
30825;DHT22;17550;45.486;12.222;2023-02-28T06:39:20;4.00;97.60
30825;DHT22;17550;45.486;12.222;2023-02-28T06:41:46;4.10;97.80
30825;DHT22;17550;45.486;12.222;2023-02-28T06:44:14;4.10;97.80
30825;DHT22;17550;45.486;12.222;2023-02-28T06:46:41;4.10;97.60
30825;DHT22;17550;45.486;12.222;2023-02-28T06:49:08;4.10;97.90
30825;DHT22;17550;45.486;12.222;2023-02-28T06:51:35;4.10;97.80
30825;DHT22;17550;45.486;12.222;2023-02-28T06:54:01;4.20;97.70
30825;DHT22;17550;45.486;12.222;2023-02-28T06:56:27;4.30;97.50
30825;DHT22;17550;45.486;12.222;2023-02-28T06:58:52;4.40;97.50
30825;DHT22;17550;45.486;12.222;2023-02-28T07:01:18;4.50;97.30
30825;DHT22;17550;45.486;12.222;2023-02-28T07:03:45;4.60;97.40
30825;DHT22;17550;45.486;12.222;2023-02-28T07:06:11;4.60;97.10
30825;DHT22;17550;45.486;12.222;2023-02-28T07:08:37;4.80;96.70
30825;DHT22;17550;45.486;12.222;2023-02-28T07:11:03;4.80;96.20
30825;DHT22;17550;45.486;12.222;2023-02-28T07:13:29;4.90;96.30
30825;DHT22;17550;45.486;12.222;2023-02-28T07:15:56;5.00;96.10
30825;DHT22;17550;45.486;12.222;2023-02-28T07:18:22;5.00;96.10
30825;DHT22;17550;45.486;12.222;2023-02-28T07:20:48;5.00;96.00
30825;DHT22;17550;45.486;12.222;2023-02-28T07:23:14;5.10;95.80
30825;DHT22;17550;45.486;12.222;2023-02-28T07:25:40;5.20;95.50
30825;DHT22;17550;45.486;12.222;2023-02-28T07:28:05;5.20;95.40
30825;DHT22;17550;45.486;12.222;2023-02-28T07:30:31;5.30;95.50
30825;DHT22;17550;45.486;12.222;2023-02-28T07:32:59;5.30;95.30
30825;DHT22;17550;45.486;12.222;2023-02-28T07:35:25;5.30;95.30
30825;DHT22;17550;45.486;12.222;2023-02-28T07:37:51;5.30;95.20
30825;DHT22;17550;45.486;12.222;2023-02-28T07:40:17;5.40;95.20
30825;DHT22;17550;45.486;12.222;2023-02-28T07:42:43;5.40;95.30
30825;DHT22;17550;45.486;12.222;2023-02-28T07:45:10;5.50;95.40
30825;DHT22;17550;45.486;12.222;2023-02-28T07:47:38;5.50;94.90
30825;DHT22;17550;45.486;12.222;2023-02-28T07:50:05;5.40;95.20
30825;DHT22;17550;45.486;12.222;2023-02-28T07:52:31;5.50;95.40
30825;DHT22;17550;45.486;12.222;2023-02-28T07:54:57;5.60;95.50
30825;DHT22;17550;45.486;12.222;2023-02-28T07:57:23;5.60;95.20
30825;DHT22;17550;45.486;12.222;2023-02-28T07:59:49;5.60;95.20
30825;DHT22;17550;45.486;12.222;2023-02-28T08:02:16;5.80;95.30
30825;DHT22;17550;45.486;12.222;2023-02-28T08:04:42;5.80;94.90
30825;DHT22;17550;45.486;12.222;2023-02-28T08:07:08;5.80;95.10
30825;DHT22;17550;45.486;12.222;2023-02-28T08:09:40;5.80;95.30
30825;DHT22;17550;45.486;12.222;2023-02-28T08:12:07;5.90;95.10
30825;DHT22;17550;45.486;12.222;2023-02-28T08:14:33;5.90;95.00
30825;DHT22;17550;45.486;12.222;2023-02-28T08:16:59;6.00;95.10
30825;DHT22;17550;45.486;12.222;2023-02-28T08:19:25;6.10;95.10
30825;DHT22;17550;45.486;12.222;2023-02-28T08:21:50;6.30;94.60
30825;DHT22;17550;45.486;12.222;2023-02-28T08:24:16;6.30;94.80
30825;DHT22;17550;45.486;12.222;2023-02-28T08:26:42;6.40;94.70
30825;DHT22;17550;45.486;12.222;2023-02-28T08:29:07;6.50;94.40
30825;DHT22;17550;45.486;12.222;2023-02-28T08:31:33;6.50;94.30
30825;DHT22;17550;45.486;12.222;2023-02-28T08:34:10;6.50;94.10
30825;DHT22;17550;45.486;12.222;2023-02-28T08:36:36;6.60;94.50
30825;DHT22;17550;45.486;12.222;2023-02-28T08:39:03;6.60;93.90
30825;DHT22;17550;45.486;12.222;2023-02-28T08:41:29;6.50;94.30
30825;DHT22;17550;45.486;12.222;2023-02-28T08:43:55;6.60;94.30
30825;DHT22;17550;45.486;12.222;2023-02-28T08:46:20;6.70;94.20
30825;DHT22;17550;45.486;12.222;2023-02-28T08:48:46;6.90;93.80
30825;DHT22;17550;45.486;12.222;2023-02-28T08:51:15;6.90;93.80
30825;DHT22;17550;45.486;12.222;2023-02-28T08:53:44;6.90;93.70
30825;DHT22;17550;45.486;12.222;2023-02-28T08:56:15;6.90;93.80
30825;DHT22;17550;45.486;12.222;2023-02-28T08:58:42;6.90;94.10
30825;DHT22;17550;45.486;12.222;2023-02-28T09:01:13;7.10;93.90
30825;DHT22;17550;45.486;12.222;2023-02-28T09:03:40;7.10;93.40
30825;DHT22;17550;45.486;12.222;2023-02-28T09:06:07;7.20;93.50
30825;DHT22;17550;45.486;12.222;2023-02-28T09:08:34;7.20;93.40
30825;DHT22;17550;45.486;12.222;2023-02-28T09:11:00;7.30;93.10
30825;DHT22;17550;45.486;12.222;2023-02-28T09:13:27;7.30;92.80
30825;DHT22;17550;45.486;12.222;2023-02-28T09:15:54;7.30;93.10
30825;DHT22;17550;45.486;12.222;2023-02-28T09:18:20;7.40;93.20
30825;DHT22;17550;45.486;12.222;2023-02-28T09:20:46;7.40;92.90
30825;DHT22;17550;45.486;12.222;2023-02-28T09:23:12;7.40;93.00
30825;DHT22;17550;45.486;12.222;2023-02-28T09:25:48;7.30;93.30
30825;DHT22;17550;45.486;12.222;2023-02-28T09:28:14;7.50;93.20
30825;DHT22;17550;45.486;12.222;2023-02-28T09:30:41;7.50;93.30
30825;DHT22;17550;45.486;12.222;2023-02-28T09:33:07;7.70;92.70
30825;DHT22;17550;45.486;12.222;2023-02-28T09:35:33;7.70;92.90
30825;DHT22;17550;45.486;12.222;2023-02-28T09:37:59;7.90;92.80
30825;DHT22;17550;45.486;12.222;2023-02-28T09:40:25;7.80;92.60
30825;DHT22;17550;45.486;12.222;2023-02-28T09:42:53;7.80;92.30
30825;DHT22;17550;45.486;12.222;2023-02-28T09:45:39;7.80;92.40
30825;DHT22;17550;45.486;12.222;2023-02-28T09:48:17;7.70;92.30
30825;DHT22;17550;45.486;12.222;2023-02-28T09:50:55;7.70;92.40
30825;DHT22;17550;45.486;12.222;2023-02-28T09:53:31;7.60;92.40
30825;DHT22;17550;45.486;12.222;2023-02-28T09:58:33;7.80;92.80
30825;DHT22;17550;45.486;12.222;2023-02-28T10:01:18;8.00;92.50
30825;DHT22;17550;45.486;12.222;2023-02-28T10:04:00;8.00;92.70
30825;DHT22;17550;45.486;12.222;2023-02-28T10:06:32;8.10;92.60
30825;DHT22;17550;45.486;12.222;2023-02-28T10:09:10;8.10;92.60
30825;DHT22;17550;45.486;12.222;2023-02-28T10:11:39;8.10;92.60
30825;DHT22;17550;45.486;12.222;2023-02-28T10:14:19;8.20;92.60
30825;DHT22;17550;45.486;12.222;2023-02-28T10:17:04;8.30;92.70
30825;DHT22;17550;45.486;12.222;2023-02-28T10:19:53;8.30;92.40
30825;DHT22;17550;45.486;12.222;2023-02-28T10:22:56;8.30;92.20
30825;DHT22;17550;45.486;12.222;2023-02-28T10:25:26;8.30;92.40
30825;DHT22;17550;45.486;12.222;2023-02-28T10:28:08;8.40;92.10
30825;DHT22;17550;45.486;12.222;2023-02-28T10:30:36;8.40;92.20
30825;DHT22;17550;45.486;12.222;2023-02-28T10:33:08;8.60;91.80
30825;DHT22;17550;45.486;12.222;2023-02-28T10:35:40;8.50;91.80
30825;DHT22;17550;45.486;12.222;2023-02-28T10:38:19;8.40;92.00
30825;DHT22;17550;45.486;12.222;2023-02-28T10:40:45;8.60;92.00
30825;DHT22;17550;45.486;12.222;2023-02-28T10:45:52;8.60;91.90
30825;DHT22;17550;45.486;12.222;2023-02-28T10:56:04;8.70;92.00
30825;DHT22;17550;45.486;12.222;2023-02-28T11:01:24;8.90;91.90
30825;DHT22;17550;45.486;12.222;2023-02-28T11:03:51;9.00;91.70
30825;DHT22;17550;45.486;12.222;2023-02-28T11:06:25;9.00;91.50
30825;DHT22;17550;45.486;12.222;2023-02-28T11:08:56;9.20;91.50
30825;DHT22;17550;45.486;12.222;2023-02-28T11:11:26;9.20;91.10
30825;DHT22;17550;45.486;12.222;2023-02-28T11:13:55;9.10;90.80
30825;DHT22;17550;45.486;12.222;2023-02-28T11:16:33;9.00;91.00
30825;DHT22;17550;45.486;12.222;2023-02-28T11:19:00;8.90;91.50
30825;DHT22;17550;45.486;12.222;2023-02-28T11:21:35;9.00;91.60
30825;DHT22;17550;45.486;12.222;2023-02-28T11:24:26;9.00;91.50
30825;DHT22;17550;45.486;12.222;2023-02-28T11:26:52;9.00;91.60
30825;DHT22;17550;45.486;12.222;2023-02-28T11:29:29;9.10;91.30
30825;DHT22;17550;45.486;12.222;2023-02-28T11:32:12;9.20;91.50
30825;DHT22;17550;45.486;12.222;2023-02-28T11:34:39;9.10;91.10
30825;DHT22;17550;45.486;12.222;2023-02-28T11:37:09;9.10;91.30
30825;DHT22;17550;45.486;12.222;2023-02-28T11:39:37;9.10;91.30
30825;DHT22;17550;45.486;12.222;2023-02-28T11:47:53;9.00;91.40
30825;DHT22;17550;45.486;12.222;2023-02-28T11:52:52;9.10;91.60
30825;DHT22;17550;45.486;12.222;2023-02-28T12:01:30;9.40;91.30
30825;DHT22;17550;45.486;12.222;2023-02-28T12:07:07;9.40;91.30
30825;DHT22;17550;45.486;12.222;2023-02-28T12:18:17;9.60;91.10
30825;DHT22;17550;45.486;12.222;2023-02-28T12:23:46;9.60;91.10
30825;DHT22;17550;45.486;12.222;2023-02-28T12:26:31;9.60;90.60
30825;DHT22;17550;45.486;12.222;2023-02-28T12:29:13;9.70;90.80
30825;DHT22;17550;45.486;12.222;2023-02-28T12:31:48;9.60;91.10
30825;DHT22;17550;45.486;12.222;2023-02-28T12:34:31;9.60;90.90
30825;DHT22;17550;45.486;12.222;2023-02-28T12:37:01;9.70;90.80
30825;DHT22;17550;45.486;12.222;2023-02-28T12:39:35;9.80;90.80
30825;DHT22;17550;45.486;12.222;2023-02-28T12:42:07;9.80;90.40
30825;DHT22;17550;45.486;12.222;2023-02-28T12:44:44;9.80;90.30
30825;DHT22;17550;45.486;12.222;2023-02-28T12:47:16;9.80;90.70
30825;DHT22;17550;45.486;12.222;2023-02-28T12:49:56;9.80;90.40
30825;DHT22;17550;45.486;12.222;2023-02-28T12:52:58;9.80;90.70
30825;DHT22;17550;45.486;12.222;2023-02-28T12:58:14;10.20;90.60
30825;DHT22;17550;45.486;12.222;2023-02-28T13:06:28;10.00;90.40
30825;DHT22;17550;45.486;12.222;2023-02-28T13:09:25;10.00;90.20
30825;DHT22;17550;45.486;12.222;2023-02-28T13:11:52;10.20;90.00
30825;DHT22;17550;45.486;12.222;2023-02-28T13:19:30;10.50;90.50
30825;DHT22;17550;45.486;12.222;2023-02-28T13:21:57;10.50;90.20
30825;DHT22;17550;45.486;12.222;2023-02-28T13:24:47;10.60;90.70
30825;DHT22;17550;45.486;12.222;2023-02-28T13:27:21;10.60;90.50
30825;DHT22;17550;45.486;12.222;2023-02-28T13:29:52;10.70;90.30
30825;DHT22;17550;45.486;12.222;2023-02-28T13:32:33;10.70;87.70
30825;DHT22;17550;45.486;12.222;2023-02-28T13:39:57;10.70;88.70
30825;DHT22;17550;45.486;12.222;2023-02-28T13:47:52;11.00;90.00
30825;DHT22;17550;45.486;12.222;2023-02-28T13:50:27;11.10;89.60
30825;DHT22;17550;45.486;12.222;2023-02-28T14:09:02;10.70;90.80
30825;DHT22;17550;45.486;12.222;2023-02-28T14:11:33;10.90;90.90
30825;DHT22;17550;45.486;12.222;2023-02-28T14:13:59;11.00;90.40
30825;DHT22;17550;45.486;12.222;2023-02-28T14:16:46;11.00;90.50
30825;DHT22;17550;45.486;12.222;2023-02-28T14:19:13;11.00;90.10
30825;DHT22;17550;45.486;12.222;2023-02-28T14:22:02;10.90;91.00
30825;DHT22;17550;45.486;12.222;2023-02-28T14:27:28;11.20;91.20
30825;DHT22;17550;45.486;12.222;2023-02-28T14:36:12;11.30;91.10
30825;DHT22;17550;45.486;12.222;2023-02-28T14:38:59;11.40;90.90
30825;DHT22;17550;45.486;12.222;2023-02-28T14:41:36;11.30;91.10
30825;DHT22;17550;45.486;12.222;2023-02-28T14:46:41;11.40;91.10
30825;DHT22;17550;45.486;12.222;2023-02-28T14:49:35;11.20;91.40
30825;DHT22;17550;45.486;12.222;2023-02-28T14:54:31;11.20;91.50
30825;DHT22;17550;45.486;12.222;2023-02-28T14:56:57;11.30;91.50
30825;DHT22;17550;45.486;12.222;2023-02-28T14:59:29;11.10;91.50
30825;DHT22;17550;45.486;12.222;2023-02-28T15:02:21;11.20;91.40
30825;DHT22;17550;45.486;12.222;2023-02-28T15:04:59;11.40;91.40
30825;DHT22;17550;45.486;12.222;2023-02-28T15:07:26;11.20;91.50
30825;DHT22;17550;45.486;12.222;2023-02-28T15:12:55;10.90;91.60
30825;DHT22;17550;45.486;12.222;2023-02-28T15:15:24;10.70;92.00
30825;DHT22;17550;45.486;12.222;2023-02-28T15:17:54;10.70;92.10
30825;DHT22;17550;45.486;12.222;2023-02-28T15:20:21;10.90;92.10
30825;DHT22;17550;45.486;12.222;2023-02-28T15:22:50;11.00;92.20
30825;DHT22;17550;45.486;12.222;2023-02-28T15:25:20;11.10;92.10
30825;DHT22;17550;45.486;12.222;2023-02-28T15:27:52;11.00;91.90
30825;DHT22;17550;45.486;12.222;2023-02-28T15:30:25;10.70;92.20
30825;DHT22;17550;45.486;12.222;2023-02-28T15:33:20;10.70;92.40
30825;DHT22;17550;45.486;12.222;2023-02-28T15:35:46;10.80;92.60
30825;DHT22;17550;45.486;12.222;2023-02-28T15:38:23;10.80;92.40
30825;DHT22;17550;45.486;12.222;2023-02-28T15:40:54;10.70;92.60
30825;DHT22;17550;45.486;12.222;2023-02-28T15:43:32;10.60;93.20
30825;DHT22;17550;45.486;12.222;2023-02-28T15:46:09;10.50;93.00
30825;DHT22;17550;45.486;12.222;2023-02-28T15:48:54;10.40;93.00
30825;DHT22;17550;45.486;12.222;2023-02-28T15:51:34;10.30;93.10
30825;DHT22;17550;45.486;12.222;2023-02-28T15:54:06;10.30;93.10
30825;DHT22;17550;45.486;12.222;2023-02-28T15:56:38;10.30;93.30
30825;DHT22;17550;45.486;12.222;2023-02-28T15:59:26;10.40;93.30
30825;DHT22;17550;45.486;12.222;2023-02-28T16:04:28;10.40;93.40
30825;DHT22;17550;45.486;12.222;2023-02-28T16:07:00;10.40;93.60
30825;DHT22;17550;45.486;12.222;2023-02-28T16:09:26;10.30;93.70
30825;DHT22;17550;45.486;12.222;2023-02-28T16:11:55;10.20;94.00
30825;DHT22;17550;45.486;12.222;2023-02-28T16:14:24;10.10;94.60
30825;DHT22;17550;45.486;12.222;2023-02-28T16:16:54;10.10;94.30
30825;DHT22;17550;45.486;12.222;2023-02-28T16:19:21;10.00;94.20
30825;DHT22;17550;45.486;12.222;2023-02-28T16:21:47;9.90;94.50
30825;DHT22;17550;45.486;12.222;2023-02-28T16:24:14;9.80;94.40
30825;DHT22;17550;45.486;12.222;2023-02-28T16:26:40;9.60;94.10
30825;DHT22;17550;45.486;12.222;2023-02-28T16:29:08;9.50;94.40
30825;DHT22;17550;45.486;12.222;2023-02-28T16:31:37;9.50;94.70
30825;DHT22;17550;45.486;12.222;2023-02-28T16:34:04;9.40;94.80
30825;DHT22;17550;45.486;12.222;2023-02-28T16:36:30;9.30;94.80
30825;DHT22;17550;45.486;12.222;2023-02-28T16:38:56;9.30;94.90
30825;DHT22;17550;45.486;12.222;2023-02-28T16:41:25;9.20;95.00
30825;DHT22;17550;45.486;12.222;2023-02-28T16:43:54;9.20;95.10
30825;DHT22;17550;45.486;12.222;2023-02-28T16:46:25;9.10;95.10
30825;DHT22;17550;45.486;12.222;2023-02-28T16:48:52;9.10;95.20
30825;DHT22;17550;45.486;12.222;2023-02-28T16:51:18;9.00;95.30
30825;DHT22;17550;45.486;12.222;2023-02-28T16:53:45;9.00;95.40
30825;DHT22;17550;45.486;12.222;2023-02-28T16:56:22;8.90;95.60
30825;DHT22;17550;45.486;12.222;2023-02-28T16:58:49;8.90;95.80
30825;DHT22;17550;45.486;12.222;2023-02-28T17:01:16;8.80;95.80
30825;DHT22;17550;45.486;12.222;2023-02-28T17:03:42;8.80;96.00
30825;DHT22;17550;45.486;12.222;2023-02-28T17:06:23;8.80;96.30
30825;DHT22;17550;45.486;12.222;2023-02-28T17:08:50;8.70;96.30
30825;DHT22;17550;45.486;12.222;2023-02-28T17:11:17;8.60;96.30
30825;DHT22;17550;45.486;12.222;2023-02-28T17:13:43;8.60;96.30
30825;DHT22;17550;45.486;12.222;2023-02-28T17:18:50;8.50;96.30
30825;DHT22;17550;45.486;12.222;2023-02-28T17:21:17;8.40;96.30
30825;DHT22;17550;45.486;12.222;2023-02-28T17:23:43;8.40;96.40
30825;DHT22;17550;45.486;12.222;2023-02-28T17:26:16;8.40;96.40
30825;DHT22;17550;45.486;12.222;2023-02-28T17:28:43;8.30;96.40
30825;DHT22;17550;45.486;12.222;2023-02-28T17:31:09;8.20;96.40
30825;DHT22;17550;45.486;12.222;2023-02-28T17:33:35;8.10;96.60
30825;DHT22;17550;45.486;12.222;2023-02-28T17:36:00;8.10;96.60
30825;DHT22;17550;45.486;12.222;2023-02-28T17:38:27;8.00;96.70
30825;DHT22;17550;45.486;12.222;2023-02-28T17:40:52;8.00;96.90
30825;DHT22;17550;45.486;12.222;2023-02-28T17:43:26;7.90;96.80
30825;DHT22;17550;45.486;12.222;2023-02-28T17:45:53;7.80;96.90
30825;DHT22;17550;45.486;12.222;2023-02-28T17:48:18;7.80;96.90
30825;DHT22;17550;45.486;12.222;2023-02-28T17:50:44;7.70;96.80
30825;DHT22;17550;45.486;12.222;2023-02-28T17:53:10;7.70;96.90
30825;DHT22;17550;45.486;12.222;2023-02-28T17:55:36;7.60;96.80
30825;DHT22;17550;45.486;12.222;2023-02-28T17:58:03;7.50;96.80
30825;DHT22;17550;45.486;12.222;2023-02-28T18:00:29;7.50;96.90
30825;DHT22;17550;45.486;12.222;2023-02-28T18:02:55;7.40;97.00
30825;DHT22;17550;45.486;12.222;2023-02-28T18:05:20;7.40;97.00
30825;DHT22;17550;45.486;12.222;2023-02-28T18:07:46;7.30;97.00
30825;DHT22;17550;45.486;12.222;2023-02-28T18:10:19;7.30;97.00
30825;DHT22;17550;45.486;12.222;2023-02-28T18:12:47;7.30;96.90
30825;DHT22;17550;45.486;12.222;2023-02-28T18:15:13;7.20;96.90